Stations météo

Publicité
Briancon, France (7593): Température de l'air & dewpoint: 06.12.2018 19:00:00 - 12.12.2018 19:00:00 (CET)Briancon, France (7593): Vitesse du vent: 06.12.2018 19:00:00 - 12.12.2018 19:00:00 (CET)Briancon, France (7593): Direction du vent: 06.12.2018 19:00:00 - 12.12.2018 19:00:00 (CET)Briancon, France (7593): Quantités de précipitations: 06.12.2018 19:00:00 - 12.12.2018 19:00:00 (CET)
Date & Time tt [°C] td [°C] ff [km/h] ff [knt] dd rr [mm]
12.12.2018 19:00:00 -2,6 -7,1 3 1 NE 0,0
12.12.2018 18:00:00 -2,9 -7,6 3 1 ENE 0,0
12.12.2018 17:00:00 -2,5 -8,0 3 2 E 0,0
12.12.2018 16:00:00 0,2 -8,3 0 0 N 0,0
12.12.2018 15:00:00 0,0 -8,9 5 3 S 0,0
12.12.2018 14:00:00 0,1 -9,1 3 1 NW 0,0
12.12.2018 13:00:00 -0,7 -9,1 2 1 NNE 0,0
12.12.2018 12:00:00 -1,9 -9,5 0 0 N 0,0
12.12.2018 11:00:00 -3,7 -10,3 2 1 S 0,0
12.12.2018 10:00:00 -6,2 -11,0 2 1 N 0,0
12.12.2018 09:00:00 -8,2 -12,2 4 2 NE 0,0
12.12.2018 08:00:00 -9,1 -12,2 3 2 S 0,0
12.12.2018 07:00:00 -8,9 -12,5 3 2 E 0,0
12.12.2018 06:00:00 -8,8 -11,9 3 1 S 0,0
12.12.2018 05:00:00 -8,6 -11,3 2 1 E 0,0
12.12.2018 04:00:00 -8,3 -11,5 0 0 N 0,0
12.12.2018 03:00:00 -8,1 -11,4 3 1 S 0,0
12.12.2018 02:00:00 -8,0 -10,8 2 1 E 0,0
12.12.2018 01:00:00 -7,7 -11,0 0 0 N 0,0
12.12.2018 00:00:00 -7,0 -11,6 2 1 SW 0,0
11.12.2018 23:00:00 -6,8 -10,2 2 1 SE 0,0
11.12.2018 22:00:00 -6,3 -10,7 2 1 SSW 0,0
11.12.2018 21:00:00 -5,8 -10,6 0 0 N 0,0
11.12.2018 20:00:00 -5,4 -10,4 3 2 NE 0,0
11.12.2018 19:00:00 -4,6 -9,1 2 1 ENE 0,0
11.12.2018 18:00:00 -3,9 -8,8 4 2 ESE 0,0
11.12.2018 17:00:00 -2,3 -8,0 5 3 NE 0,0
11.12.2018 16:00:00 0,7 -7,3 6 3 NE 0,0
11.12.2018 15:00:00 3,7 -7,2 3 2 W 0,0
11.12.2018 14:00:00 3,7 -8,0 6 3 WSW 0,0
11.12.2018 13:00:00 2,1 -10,8 4 2 ESE 0,0
11.12.2018 12:00:00 0,8 -10,7 3 2 E 0,0
11.12.2018 11:00:00 -2,1 -9,9 4 2 SSE 0,0
11.12.2018 10:00:00 -3,4 -10,3 3 2 E 0,0
11.12.2018 09:00:00 -2,3 -11,1 5 3 NW 0,0
11.12.2018 08:00:00 -1,0 -11,5 22 12 ENE 0,0
11.12.2018 07:00:00 -1,3 -10,7 23 12 NE 0,0
11.12.2018 06:00:00 -0,2 -10,4 35 19 ENE 0,0
11.12.2018 05:00:00 1,0 -10,2 35 19 ENE 0,0
11.12.2018 04:00:00 0,1 -9,4 33 18 ENE 0,0
11.12.2018 03:00:00 0,4 -8,8 34 19 E 0,0
11.12.2018 02:00:00 0,5 -7,7 34 19 ENE 0,0
11.12.2018 01:00:00 1,3 -8,0 30 16 ENE 0,0
11.12.2018 00:00:00 1,8 -8,1 32 18 ENE 0,0
10.12.2018 23:00:00 1,0 -7,8 27 15 ENE 0,0
10.12.2018 22:00:00 2,0 -7,9 23 13 E 0,0
10.12.2018 21:00:00 2,7 -8,4 23 13 E 0,0
10.12.2018 20:00:00 1,6 -7,5 16 8 NE 0,0
10.12.2018 19:00:00 2,7 -9,0 23 13 ENE 0,0
10.12.2018 18:00:00 2,1 -8,1 18 10 NE 0,0
10.12.2018 17:00:00 2,4 -7,5 21 11 ENE 0,0
10.12.2018 16:00:00 2,8 -4,9 6 4 ENE 0,0
10.12.2018 15:00:00 4,0 -4,7 6 3 NW 0,0
10.12.2018 14:00:00 3,4 -4,6 8 4 E 0,0
10.12.2018 13:00:00 3,6 -4,9 11 6 SE 0,0
10.12.2018 12:00:00 2,2 -3,7 15 8 ESE 0,0
10.12.2018 11:00:00 0,7 -4,0 17 9 ESE 0,0
10.12.2018 10:00:00 0,2 -2,8 14 7 SE 0,0
10.12.2018 09:00:00 -0,1 -1,8 13 7 ESE 0,0
10.12.2018 08:00:00 -0,2 -1,5 12 6 ENE 0,0
10.12.2018 07:00:00 0,0 -1,3 9 5 ESE 0,4
10.12.2018 06:00:00 0,1 -0,5 11 6 E 1,0
10.12.2018 05:00:00 0,1 -0,5 13 7 E 1,0
10.12.2018 04:00:00 0,1 -0,2 7 4 N 0,2
10.12.2018 03:00:00 -0,2 -0,6 4 2 SW 0,0
10.12.2018 02:00:00 -0,1 -0,5 4 2 S 0,8
10.12.2018 01:00:00 0,0 -0,4 2 1 SSW 2,4
10.12.2018 00:00:00 0,2 -0,2 4 2 NNE 2,6
09.12.2018 23:00:00 0,1 -0,3 3 2 N 1,4
09.12.2018 22:00:00 0,3 -0,3 3 1 SE 1,8
09.12.2018 21:00:00 0,3 -0,6 2 1 ESE 0,4
09.12.2018 20:00:00 0,2 -0,7 2 1 S 0,2
09.12.2018 19:00:00 1,0 -1,2 13 7 NE 0,0
09.12.2018 18:00:00 1,2 -1,5 16 9 NE 0,0
09.12.2018 17:00:00 1,8 -2,5 11 6 NE 0,0
09.12.2018 16:00:00 1,9 -1,7 16 9 NE 0,0
09.12.2018 15:00:00 2,6 -3,1 15 8 NNE 0,0
09.12.2018 14:00:00 5,7 -5,9 13 7 N 0,0
09.12.2018 13:00:00 5,0 -4,1 14 8 N 0,0
09.12.2018 12:00:00 6,0 -2,1 11 6 N 0,0
09.12.2018 11:00:00 5,2 -1,1 5 3 NNE 0,0
09.12.2018 10:00:00 1,7 -2,1 7 4 NNW 0,0
09.12.2018 09:00:00 -0,1 -2,6 8 4 NNE 0,0
09.12.2018 08:00:00 -1,0 -3,4 4 2 NE 0,0
09.12.2018 07:00:00 -1,4 -3,6 5 3 S 0,0
09.12.2018 06:00:00 -1,8 -3,8 7 4 ENE 0,0
09.12.2018 05:00:00 -2,2 -4,5 4 2 NE 0,0
09.12.2018 04:00:00 -2,0 -4,8 3 2 ESE 0,0
09.12.2018 03:00:00 -1,3 -4,6 6 3 E 0,0
09.12.2018 02:00:00 -1,7 -4,9 3 1 ESE 0,0
09.12.2018 01:00:00 -1,1 -5,3 0 0 N 0,0
09.12.2018 00:00:00 -0,7 -5,5 4 2 SE 0,0
08.12.2018 23:00:00 -0,6 -5,2 10 5 S 0,0
08.12.2018 22:00:00 -0,4 -5,0 5 3 SE 0,0
08.12.2018 21:00:00 -1,0 -5,6 2 1 SSE 0,0
08.12.2018 20:00:00 -0,4 -5,4 4 2 ENE 0,0
08.12.2018 19:00:00 -0,2 -5,8 3 1 ENE 0,0
08.12.2018 18:00:00 0,5 -5,5 4 2 NE 0,0
08.12.2018 17:00:00 2,7 -5,0 3 1 WSW 0,0
08.12.2018 16:00:00 4,8 -6,4 6 3 ESE 0,0
08.12.2018 15:00:00 6,1 -6,2 7 4 N 0,0
08.12.2018 14:00:00 5,5 -7,4 13 7 NNE 0,0
08.12.2018 13:00:00 4,7 -7,5 18 10 ENE 0,0
08.12.2018 12:00:00 3,9 -6,7 21 11 NE 0,0
08.12.2018 11:00:00 3,3 -7,5 14 8 NNE 0,0
08.12.2018 10:00:00 2,3 -8,7 17 9 NE 0,0
08.12.2018 09:00:00 1,4 -9,3 13 7 NE 0,0
08.12.2018 08:00:00 1,1 -9,0 22 12 NE 0,0
08.12.2018 07:00:00 1,1 -8,7 29 16 ENE 0,0
08.12.2018 06:00:00 1,4 -9,3 27 15 ENE 0,0
08.12.2018 05:00:00 1,8 -9,2 9 5 NE 0,0
08.12.2018 04:00:00 1,6 -8,2 19 10 E 0,0
08.12.2018 03:00:00 0,8 -5,7 24 13 ENE 0,0
08.12.2018 02:00:00 0,4 -2,8 4 2 E 0,0
08.12.2018 01:00:00 1,4 -0,8 20 11 NNE 0,0
08.12.2018 00:00:00 2,6 0,7 22 12 NE 0,8
07.12.2018 23:00:00 2,2 1,0 4 2 S 0,4
07.12.2018 22:00:00 1,8 0,0 5 3 NW 0,0
07.12.2018 21:00:00 3,1 -0,5 9 5 NE 0,0
07.12.2018 20:00:00 3,1 -1,5 6 3 E 0,0
07.12.2018 19:00:00 2,3 -1,9 9 5 ENE 0,0
07.12.2018 18:00:00 2,6 -1,4 3 2 NE 0,0
07.12.2018 17:00:00 3,6 -1,2 4 2 E 0,0
07.12.2018 16:00:00 8,7 -1,2 5 3 N 0,0
07.12.2018 15:00:00 9,0 -1,2 5 3 NNE 0,0
07.12.2018 14:00:00 10,3 -2,4 3 2 SSW 0,0
07.12.2018 13:00:00 7,6 -1,6 3 2 E 0,0
07.12.2018 12:00:00 6,4 -1,8 3 1 SSW 0,0
07.12.2018 11:00:00 2,1 -1,9 2 1 E 0,0
07.12.2018 10:00:00 0,1 -3,3 2 1 NNW 0,0
07.12.2018 09:00:00 -0,4 -3,3 3 2 E 0,0
07.12.2018 08:00:00 -0,6 -3,6 0 0 N 0,0
07.12.2018 07:00:00 -0,5 -3,2 3 1 ESE 0,0
07.12.2018 06:00:00 -0,3 -3,3 0 0 N 0,0
07.12.2018 05:00:00 -0,5 -3,0 0 0 N 0,0
07.12.2018 04:00:00 -0,3 -3,0 0 0 N 0,0
07.12.2018 03:00:00 0,2 -2,7 3 2 NE 0,0
07.12.2018 02:00:00 0,1 -2,6 2 1 SE 0,0
07.12.2018 01:00:00 0,5 -2,6 4 2 SSE 0,0
07.12.2018 00:00:00 0,5 -2,4 6 4 SSW 0,0
06.12.2018 23:00:00 0,6 -2,1 4 2 ENE 0,0
06.12.2018 22:00:00 0,7 -2,2 0 0 N 0,0
06.12.2018 21:00:00 1,2 -1,7 2 1 ENE 0,0
06.12.2018 20:00:00 2,0 -1,4 2 1 SSE 0,0
06.12.2018 19:00:00 2,8 -0,8 3 2 NNE 0,0

tt = Température de l'air
td = dewpoint
ff = Vitesse du vent
dd = Direction du vent
rr = Quantités de précipitations

stations d'obs. à proximité